createdAt,value
2024-01-16T00:02:33.343Z,104.82
2024-01-16T00:07:35.558Z,101.25
2024-01-16T00:12:56.366Z,106.40
2024-01-16T00:17:50.484Z,113.75
2024-01-16T00:22:51.250Z,104.65
2024-01-16T00:28:02.204Z,123.22
2024-01-16T00:33:12.763Z,88.78
2024-01-16T00:38:37.530Z,119.50
2024-01-16T00:43:48.206Z,122.72
2024-01-16T00:49:22.026Z,113.68
2024-01-16T00:55:18.041Z,115.63
2024-01-16T01:00:43.050Z,114.55
2024-01-16T01:06:25.292Z,104.95
2024-01-16T01:11:46.205Z,112.82
2024-01-16T01:16:49.787Z,109.68
2024-01-16T01:22:26.761Z,118.38
2024-01-16T01:28:03.581Z,119.80
2024-01-16T01:33:48.217Z,128.18
2024-01-16T01:39:19.823Z,123.30
2024-01-16T01:45:24.537Z,133.10
2024-01-16T01:50:26.762Z,132.63
2024-01-16T01:55:47.479Z,142.80
2024-01-16T02:01:13.002Z,133.77
2024-01-16T02:06:53.811Z,138.27
2024-01-16T02:12:03.317Z,125.63
2024-01-16T02:17:27.464Z,129.07
2024-01-16T02:22:41.346Z,131.37
2024-01-16T02:28:00.897Z,133.45
2024-01-16T02:32:59.167Z,129.55
2024-01-16T02:38:20.550Z,129.10
2024-01-16T02:43:53.625Z,135.88
2024-01-16T02:49:23.457Z,131.23
2024-01-16T02:54:43.372Z,130.60
2024-01-16T02:59:58.424Z,130.60
2024-01-16T03:05:01.491Z,128.05
2024-01-16T03:10:17.378Z,126.93
2024-01-16T03:15:38.390Z,129.35
2024-01-16T03:20:46.950Z,138.32
2024-01-16T03:25:56.762Z,126.60
2024-01-16T03:31:38.369Z,128.75
2024-01-16T03:36:51.160Z,124.18
2024-01-16T03:42:12.609Z,129.52
2024-01-16T03:47:17.357Z,125.15
2024-01-16T03:52:24.217Z,135.77
2024-01-16T03:57:33.728Z,137.43
2024-01-16T04:03:05.630Z,140.80
2024-01-16T04:08:21.754Z,143.82
2024-01-16T04:13:37.316Z,144.05
2024-01-16T04:19:08.951Z,147.90
2024-01-16T04:24:27.333Z,143.43
2024-01-16T04:29:36.146Z,136.88
2024-01-16T04:34:37.664Z,147.88
2024-01-16T04:39:48.895Z,153.07
2024-01-16T04:45:39.755Z,144.50
2024-01-16T04:51:32.777Z,145.55
2024-01-16T04:57:04.772Z,144.88
2024-01-16T05:02:42.690Z,150.43
2024-01-16T05:07:41.654Z,152.63
2024-01-16T05:12:48.844Z,151.07
2024-01-16T05:17:49.229Z,158.18
2024-01-16T05:22:50.595Z,157.88
2024-01-16T05:28:06.417Z,146.27
2024-01-16T05:33:10.968Z,151.20
2024-01-16T05:38:06.228Z,155.25
2024-01-16T05:43:00.889Z,252.20
2024-01-16T05:48:01.285Z,181.95
2024-01-16T05:52:59.467Z,179.60
2024-01-16T05:57:53.366Z,226.35
2024-01-16T06:03:34.920Z,177.65
2024-01-16T06:08:39.341Z,151.48
2024-01-16T06:14:02.226Z,171.60
2024-01-16T06:18:59.795Z,173.02
2024-01-16T06:23:57.098Z,189.55
2024-01-16T06:28:53.153Z,182.27
2024-01-16T06:33:49.549Z,173.60
2024-01-16T06:38:46.273Z,227.98
2024-01-16T06:43:44.940Z,180.30
2024-01-16T06:48:57.215Z,179.68
2024-01-16T06:53:53.164Z,166.40
2024-01-16T06:58:53.053Z,162.80
2024-01-16T07:03:55.202Z,160.93
2024-01-16T07:08:50.242Z,162.73
2024-01-16T07:13:50.003Z,153.88
2024-01-16T07:18:48.037Z,143.98
2024-01-16T07:23:44.641Z,131.07
2024-01-16T07:28:39.707Z,136.35
2024-01-16T07:33:34.988Z,139.73
2024-01-16T07:38:41.413Z,131.77
2024-01-16T07:43:37.242Z,142.38
2024-01-16T07:48:32.459Z,151.35
2024-01-16T07:53:54.240Z,151.45
2024-01-16T07:58:53.252Z,156.27
2024-01-16T08:03:47.708Z,161.30
2024-01-16T08:08:48.181Z,161.95
2024-01-16T08:13:43.852Z,168.15
2024-01-16T08:19:03.397Z,179.85
2024-01-16T08:24:09.332Z,166.88
2024-01-16T08:29:27.527Z,176.13
2024-01-16T08:34:25.153Z,174.68
2024-01-16T08:39:34.135Z,167.35
2024-01-16T08:44:32.503Z,157.07
2024-01-16T08:49:28.199Z,148.07
2024-01-16T08:54:25.329Z,147.18
2024-01-16T08:59:21.280Z,133.20
2024-01-16T09:04:18.343Z,141.18
2024-01-16T09:09:14.446Z,136.60
2024-01-16T09:14:08.386Z,157.55
2024-01-16T09:19:04.101Z,148.45
2024-01-16T09:24:02.970Z,146.75
2024-01-16T09:28:59.639Z,138.40
2024-01-16T09:34:00.885Z,127.53
2024-01-16T09:38:57.603Z,128.75
2024-01-16T09:44:01.070Z,133.90
2024-01-16T09:48:58.804Z,131.20
2024-01-16T10:00:15.580Z,126.18
2024-01-16T10:05:48.648Z,123.28
2024-01-16T10:11:13.381Z,118.43
2024-01-16T10:16:33.857Z,129.32
2024-01-16T10:21:35.825Z,145.65
2024-01-16T10:26:56.949Z,133.70
2024-01-16T10:32:03.152Z,132.23
2024-01-16T10:37:21.021Z,132.95
2024-01-16T10:42:24.506Z,129.82
2024-01-16T10:47:21.993Z,123.32
2024-01-16T10:52:17.063Z,127.20
2024-01-16T10:57:11.955Z,125.25
2024-01-16T11:02:07.891Z,118.50
2024-01-16T11:07:02.338Z,126.03
2024-01-16T11:11:56.094Z,117.75
2024-01-16T11:16:50.328Z,115.07
2024-01-16T11:21:44.704Z,121.15
2024-01-16T11:26:49.125Z,124.80
2024-01-16T11:31:47.789Z,121.15
2024-01-16T11:36:57.952Z,107.50
2024-01-16T11:41:58.727Z,104.50
2024-01-16T11:47:06.675Z,105.60
2024-01-16T11:52:01.678Z,100.95
2024-01-16T11:57:16.566Z,96.18
2024-01-16T12:02:22.370Z,94.10
2024-01-16T12:07:16.601Z,105.10
2024-01-16T12:12:11.460Z,96.30
2024-01-16T12:17:13.552Z,87.70
2024-01-16T12:22:07.092Z,89.47
2024-01-16T12:27:00.396Z,85.95
2024-01-16T12:32:08.914Z,90.07
2024-01-16T12:37:10.028Z,91.68
2024-01-16T12:42:05.080Z,92.53
2024-01-16T12:47:00.834Z,93.80
2024-01-16T12:51:54.526Z,87.05
2024-01-16T12:56:49.054Z,90.00
2024-01-16T13:02:03.121Z,76.85
2024-01-16T13:07:08.416Z,77.53
2024-01-16T13:12:22.944Z,78.40
2024-01-16T13:17:23.297Z,71.85
2024-01-16T13:22:18.808Z,69.95
2024-01-16T13:27:15.186Z,73.25
2024-01-16T13:32:10.470Z,80.45
2024-01-16T13:37:15.558Z,71.40
2024-01-16T13:42:11.255Z,74.50
2024-01-16T13:47:09.060Z,65.03
2024-01-16T13:52:06.838Z,60.78
2024-01-16T13:57:06.923Z,69.32
2024-01-16T14:02:03.012Z,75.13
2024-01-16T14:07:10.970Z,65.22
2024-01-16T14:12:10.367Z,65.65
2024-01-16T14:17:05.234Z,66.07
2024-01-16T14:21:58.747Z,69.82
2024-01-16T14:26:52.825Z,68.82
2024-01-16T14:31:51.033Z,64.18
2024-01-16T14:36:44.144Z,69.78
2024-01-16T14:41:37.925Z,60.25
2024-01-16T14:46:31.872Z,64.43
2024-01-16T14:51:27.508Z,63.85
2024-01-16T14:56:21.995Z,62.08
2024-01-16T15:01:15.957Z,59.13
2024-01-16T15:06:14.582Z,54.53
2024-01-16T15:11:09.102Z,59.97
2024-01-16T15:16:02.665Z,56.17
2024-01-16T15:20:58.420Z,55.25
2024-01-16T15:25:52.421Z,54.30
2024-01-16T15:30:47.759Z,57.47
2024-01-16T15:35:42.403Z,57.60
2024-01-16T15:40:36.926Z,63.85
2024-01-16T15:45:31.410Z,56.20
2024-01-16T15:50:25.361Z,58.10
2024-01-16T15:55:19.346Z,56.28
2024-01-16T16:00:13.838Z,52.97
2024-01-16T16:05:08.968Z,61.25
2024-01-16T16:10:02.858Z,60.53
2024-01-16T16:14:56.595Z,65.78
2024-01-16T16:19:51.143Z,84.55
2024-01-16T16:24:45.148Z,64.43
2024-01-16T16:34:34.511Z,67.57
2024-01-16T16:39:28.454Z,76.45
2024-01-16T16:44:22.279Z,61.10
2024-01-16T16:49:20.707Z,92.97
2024-01-16T16:54:15.318Z,67.45
2024-01-16T16:59:11.551Z,67.90
2024-01-16T17:04:05.896Z,66.22
2024-01-16T17:09:00.528Z,61.90
2024-01-16T17:13:54.613Z,60.05
2024-01-16T17:18:49.161Z,68.88
2024-01-16T17:23:45.265Z,71.57
2024-01-16T17:28:39.718Z,70.60
2024-01-16T17:33:34.636Z,80.97
2024-01-16T17:38:31.386Z,83.82
2024-01-16T17:43:26.161Z,81.22
2024-01-16T17:48:20.541Z,96.75
2024-01-16T17:53:16.371Z,86.38
2024-01-16T17:58:11.368Z,83.95
2024-01-16T18:03:24.726Z,81.47
2024-01-16T18:08:27.111Z,77.13
2024-01-16T18:13:21.163Z,82.55
2024-01-16T18:18:17.656Z,79.28
2024-01-16T18:23:12.110Z,77.53
2024-01-16T18:28:06.876Z,84.40
2024-01-16T18:33:02.840Z,86.78
2024-01-16T18:37:56.740Z,92.72
2024-01-16T18:42:51.278Z,91.18
2024-01-16T18:47:46.355Z,91.32
2024-01-16T18:52:44.876Z,82.63
2024-01-16T18:57:42.756Z,83.40
2024-01-16T19:02:37.353Z,91.82
2024-01-16T19:07:31.964Z,93.38
2024-01-16T19:12:26.109Z,98.13
2024-01-16T19:17:20.637Z,117.00
2024-01-16T19:22:14.253Z,126.63
2024-01-16T19:27:11.614Z,125.38
2024-01-16T19:32:07.378Z,133.50
2024-01-16T19:37:03.293Z,129.68
2024-01-16T19:41:58.328Z,147.77
2024-01-16T19:46:52.129Z,129.05
2024-01-16T19:51:47.151Z,132.70
2024-01-16T19:56:44.112Z,134.63
2024-01-16T20:01:38.062Z,135.43
2024-01-16T20:06:32.712Z,141.85
2024-01-16T20:11:29.575Z,136.70
2024-01-16T20:16:23.865Z,144.23
2024-01-16T20:21:17.578Z,129.85
2024-01-16T20:26:12.218Z,133.80
2024-01-16T20:31:05.715Z,127.35
2024-01-16T20:35:59.399Z,135.93
2024-01-16T20:40:53.219Z,140.20
2024-01-16T20:45:47.864Z,147.05
2024-01-16T20:50:43.059Z,146.45
2024-01-16T20:55:39.428Z,143.73
2024-01-16T21:00:36.033Z,139.98
2024-01-16T21:05:30.963Z,152.05
2024-01-16T21:10:25.605Z,146.15
2024-01-16T21:15:20.528Z,144.35
2024-01-16T21:20:14.511Z,148.77
2024-01-16T21:25:13.102Z,136.40
2024-01-16T21:30:09.847Z,139.98
2024-01-16T21:35:03.898Z,131.38
2024-01-16T21:39:57.524Z,117.22
2024-01-16T21:44:55.160Z,118.60
2024-01-16T21:49:52.604Z,127.15
2024-01-16T21:54:50.322Z,122.97
2024-01-16T21:59:45.742Z,124.32
2024-01-16T22:04:40.425Z,120.82
2024-01-16T22:09:36.255Z,120.38
2024-01-16T22:14:34.730Z,116.13
2024-01-16T22:19:29.103Z,124.97
2024-01-16T22:24:25.818Z,123.35
2024-01-16T22:29:21.488Z,117.95
2024-01-16T22:34:20.057Z,126.53
2024-01-16T22:39:17.830Z,119.85
2024-01-16T22:44:11.633Z,124.82
2024-01-16T22:49:06.033Z,118.05
2024-01-16T22:54:00.903Z,125.32
2024-01-16T22:58:55.800Z,134.07
2024-01-16T23:03:50.812Z,129.23
2024-01-16T23:08:45.761Z,135.02
2024-01-16T23:13:41.813Z,127.15
2024-01-16T23:18:38.194Z,115.13
2024-01-16T23:23:31.956Z,120.93
2024-01-16T23:28:26.150Z,114.68
2024-01-16T23:33:20.974Z,115.55
2024-01-16T23:38:15.689Z,112.60
2024-01-16T23:43:10.071Z,99.88
2024-01-16T23:48:06.026Z,103.75
2024-01-16T23:53:01.234Z,105.38
2024-01-16T23:57:56.429Z,106.22
